createdAt,value
2022-09-12T00:01:03.669Z,101881.72
2022-09-12T00:03:33.560Z,101877.59
2022-09-12T00:06:00.152Z,101883.00
2022-09-12T00:08:26.693Z,101880.53
2022-09-12T00:10:53.130Z,101876.34
2022-09-12T00:13:19.537Z,101876.41
2022-09-12T00:15:45.992Z,101871.34
2022-09-12T00:18:16.452Z,101866.25
2022-09-12T00:20:47.369Z,101863.72
2022-09-12T00:23:14.794Z,101865.59
2022-09-12T00:25:45.710Z,101853.31
2022-09-12T00:28:13.713Z,101856.88
2022-09-12T00:30:44.625Z,101863.13
2022-09-12T00:33:11.665Z,101854.53
2022-09-12T00:35:46.046Z,101850.13
2022-09-12T00:38:13.252Z,101844.09
2022-09-12T00:40:40.295Z,101846.81
2022-09-12T00:43:15.163Z,101844.25
2022-09-12T00:45:44.568Z,101844.44
2022-09-12T00:48:23.569Z,101844.63
2022-09-12T00:50:50.462Z,101843.94
2022-09-12T00:53:17.978Z,101847.63
2022-09-12T00:55:49.300Z,101840.97
2022-09-12T00:58:30.350Z,101842.03
2022-09-12T01:00:59.668Z,101845.75
2022-09-12T01:03:26.718Z,101844.06
2022-09-12T01:05:59.582Z,101836.38
2022-09-12T01:08:27.381Z,101835.59
2022-09-12T01:10:55.538Z,101835.75
2022-09-12T01:13:22.589Z,101845.66
2022-09-12T01:15:49.200Z,101829.25
2022-09-12T01:18:32.294Z,101834.56
2022-09-12T01:21:22.779Z,101831.28
2022-09-12T01:24:34.565Z,101830.59
2022-09-12T01:27:22.924Z,101827.22
2022-09-12T01:30:03.216Z,101824.78
2022-09-12T01:32:47.066Z,101824.00
2022-09-12T01:35:45.476Z,101816.28
2022-09-12T01:38:20.994Z,101817.28
2022-09-12T01:41:04.909Z,101814.00
2022-09-12T01:43:44.099Z,101816.78
2022-09-12T01:46:15.728Z,101809.94
2022-09-12T01:48:57.195Z,101813.47
2022-09-12T01:51:36.064Z,101807.56
2022-09-12T01:54:11.567Z,101812.09
2022-09-12T01:56:41.664Z,101801.78
2022-09-12T01:59:18.825Z,101802.81
2022-09-12T02:01:55.016Z,101802.03
2022-09-12T02:04:33.997Z,101796.13
2022-09-12T02:07:35.753Z,101786.66
2022-09-12T02:10:13.750Z,101788.50
2022-09-12T02:12:50.034Z,101780.72
2022-09-12T02:15:20.642Z,101774.72
2022-09-12T02:17:50.594Z,101774.03
2022-09-12T02:20:46.908Z,101777.75
2022-09-12T02:23:20.537Z,101780.44
2022-09-12T02:25:50.950Z,101780.53
2022-09-12T02:28:23.677Z,101777.22
2022-09-12T02:31:09.513Z,101766.75
2022-09-12T02:33:49.229Z,101772.13
2022-09-12T02:36:23.983Z,101769.50
2022-09-12T02:38:50.989Z,101777.47
2022-09-12T02:41:20.663Z,101765.38
2022-09-12T02:43:49.066Z,101770.69
2022-09-12T02:46:40.862Z,101763.00
2022-09-12T02:49:09.333Z,101760.38
2022-09-12T02:51:36.289Z,101750.06
2022-09-12T02:54:03.598Z,101752.75
2022-09-12T02:56:31.245Z,101756.41
2022-09-12T02:59:08.090Z,101755.53
2022-09-12T03:01:58.758Z,101749.50
2022-09-12T03:04:45.577Z,101747.06
2022-09-12T03:07:50.590Z,101749.81
2022-09-12T03:10:19.637Z,101742.91
2022-09-12T03:13:15.222Z,101750.66
2022-09-12T03:15:48.357Z,101740.28
2022-09-12T03:18:39.461Z,101740.34
2022-09-12T03:21:12.807Z,101739.66
2022-09-12T03:23:51.631Z,101741.59
2022-09-12T03:26:31.052Z,101746.91
2022-09-12T03:28:59.164Z,101746.97
2022-09-12T03:31:25.904Z,101747.06
2022-09-12T03:33:52.381Z,101743.66
2022-09-12T03:36:27.080Z,101741.16
2022-09-12T03:38:53.702Z,101739.53
2022-09-12T03:41:20.671Z,101741.34
2022-09-12T03:43:47.634Z,101736.13
2022-09-12T03:46:14.764Z,101742.34
2022-09-12T03:48:41.715Z,101745.16
2022-09-12T03:51:10.270Z,101735.69
2022-09-12T03:53:36.846Z,101735.69
2022-09-12T03:56:10.807Z,101730.44
2022-09-12T03:58:38.209Z,101729.66
2022-09-12T04:01:13.362Z,101731.44
2022-09-12T04:03:44.996Z,101719.19
2022-09-12T04:06:15.158Z,101721.06
2022-09-12T04:08:43.119Z,101713.38
2022-09-12T04:11:14.862Z,101711.66
2022-09-12T04:13:43.599Z,101705.75
2022-09-12T04:16:11.760Z,101718.06
2022-09-12T04:18:38.778Z,101724.19
2022-09-12T04:21:07.212Z,101725.06
2022-09-12T04:23:34.672Z,101725.06
2022-09-12T04:26:02.516Z,101723.19
2022-09-12T04:28:30.087Z,101720.53
2022-09-12T04:31:01.101Z,101723.06
2022-09-12T04:33:27.515Z,101721.28
2022-09-12T04:35:53.923Z,101714.28
2022-09-12T04:38:20.310Z,101720.38
2022-09-12T04:40:47.661Z,101711.59
2022-09-12T04:43:14.718Z,101719.44
2022-09-12T04:45:41.290Z,101719.50
2022-09-12T04:48:07.709Z,101712.53
2022-09-12T04:50:34.173Z,101716.88
2022-09-12T04:53:00.599Z,101717.75
2022-09-12T04:55:27.118Z,101711.50
2022-09-12T04:57:53.540Z,101709.75
2022-09-12T05:00:20.565Z,101720.03
2022-09-12T05:02:47.149Z,101715.59
2022-09-12T05:05:13.567Z,101719.91
2022-09-12T05:07:40.406Z,101714.50
2022-09-12T05:10:07.470Z,101716.19
2022-09-12T05:12:33.914Z,101714.38
2022-09-12T05:15:00.303Z,101713.44
2022-09-12T05:17:29.386Z,101705.44
2022-09-12T05:19:55.806Z,101702.81
2022-09-12T05:22:22.807Z,101709.75
2022-09-12T05:24:50.671Z,101712.38
2022-09-12T05:27:20.543Z,101714.06
2022-09-12T05:29:47.004Z,101709.66
2022-09-12T05:32:13.497Z,101714.91
2022-09-12T05:34:40.459Z,101711.44
2022-09-12T05:37:06.927Z,101703.50
2022-09-12T05:39:33.648Z,101705.97
2022-09-12T05:42:00.073Z,101698.06
2022-09-12T05:44:26.773Z,101704.03
2022-09-12T05:46:53.621Z,101702.28
2022-09-12T05:49:21.468Z,101705.66
2022-09-12T05:51:48.411Z,101700.34
2022-09-12T05:54:18.047Z,101688.03
2022-09-12T05:56:45.426Z,101690.63
2022-09-12T05:59:22.002Z,101700.09
2022-09-12T06:01:48.968Z,101699.16
2022-09-12T06:04:16.081Z,101704.34
2022-09-12T06:06:46.947Z,101702.47
2022-09-12T06:09:15.591Z,101703.31
2022-09-12T06:11:42.401Z,101698.84
2022-09-12T06:14:10.799Z,101695.34
2022-09-12T06:16:38.186Z,101704.81
2022-09-12T06:19:07.531Z,101700.34
2022-09-12T06:21:35.499Z,101707.25
2022-09-12T06:24:02.593Z,101707.22
2022-09-12T06:26:29.579Z,101714.97
2022-09-12T06:28:57.952Z,101711.50
2022-09-12T06:31:33.724Z,101709.72
2022-09-12T06:34:02.871Z,101708.78
2022-09-12T06:36:31.865Z,101716.56
2022-09-12T06:39:01.052Z,101714.66
2022-09-12T06:41:28.186Z,101704.69
2022-09-12T06:43:54.915Z,101706.75
2022-09-12T06:46:21.621Z,101702.97
2022-09-12T06:48:48.242Z,101699.31
2022-09-12T06:51:16.755Z,101702.69
2022-09-12T06:53:47.481Z,101696.53
2022-09-12T06:56:16.901Z,101700.34
2022-09-12T06:58:43.858Z,101695.59
2022-09-12T07:01:13.161Z,101690.81
2022-09-12T07:03:40.016Z,101683.84
2022-09-12T07:06:08.160Z,101688.50
2022-09-12T07:08:37.086Z,101688.66
2022-09-12T07:11:23.960Z,101683.00
2022-09-12T07:13:52.837Z,101695.06
2022-09-12T07:16:20.341Z,101683.94
2022-09-12T07:19:00.851Z,101682.09
2022-09-12T07:21:28.100Z,101678.75
2022-09-12T07:23:58.162Z,101688.88
2022-09-12T07:26:27.480Z,101689.25
2022-09-12T07:29:07.865Z,101692.66
2022-09-12T07:31:42.540Z,101689.44
2022-09-12T07:34:09.196Z,101685.31
2022-09-12T07:36:36.081Z,101689.06
2022-09-12T07:39:02.685Z,101682.31
2022-09-12T07:41:31.177Z,101682.88
2022-09-12T07:43:59.534Z,101683.34
2022-09-12T07:46:27.788Z,101682.22
2022-09-12T07:48:56.603Z,101681.47
2022-09-12T07:51:25.422Z,101682.56
2022-09-12T07:53:51.874Z,101686.94
2022-09-12T07:56:19.901Z,101683.88
2022-09-12T07:58:47.083Z,101683.06
2022-09-12T08:01:23.205Z,101682.47
2022-09-12T08:03:53.884Z,101686.56
2022-09-12T08:06:24.177Z,101688.38
2022-09-12T08:08:52.001Z,101685.41
2022-09-12T08:11:21.848Z,101682.06
2022-09-12T08:13:54.338Z,101685.59
2022-09-12T08:16:23.151Z,101691.09
2022-09-12T08:18:50.086Z,101683.41
2022-09-12T08:21:19.558Z,101686.75
2022-09-12T08:23:46.688Z,101688.22
2022-09-12T08:26:13.717Z,101689.28
2022-09-12T08:28:45.603Z,101685.28
2022-09-12T08:31:17.786Z,101684.53
2022-09-12T08:33:44.494Z,101687.44
2022-09-12T08:36:16.210Z,101688.59
2022-09-12T08:38:45.181Z,101680.44
2022-09-12T08:41:44.307Z,101682.81
2022-09-12T08:44:48.835Z,101684.34
2022-09-12T08:47:38.389Z,101684.38
2022-09-12T08:50:11.724Z,101686.28
2022-09-12T08:52:50.319Z,101683.66
2022-09-12T08:55:31.335Z,101694.03
2022-09-12T08:58:00.722Z,101687.19
2022-09-12T09:00:38.109Z,101674.38
2022-09-12T09:03:04.749Z,101673.53
2022-09-12T09:05:49.793Z,101666.75
2022-09-12T09:08:36.139Z,101666.41
2022-09-12T09:11:14.512Z,101656.59
2022-09-12T09:14:21.917Z,101662.75
2022-09-12T09:16:51.730Z,101657.09
2022-09-12T09:19:31.648Z,101652.31
2022-09-12T09:22:07.013Z,101656.38
2022-09-12T09:24:43.449Z,101654.69
2022-09-12T09:27:47.459Z,101647.72
2022-09-12T09:30:17.298Z,101643.13
2022-09-12T09:32:54.540Z,101652.19
2022-09-12T09:35:43.521Z,101642.41
2022-09-12T09:38:19.349Z,101646.47
2022-09-12T09:41:14.990Z,101651.16
2022-09-12T09:43:41.560Z,101643.66
2022-09-12T09:46:08.304Z,101643.19
2022-09-12T09:48:37.515Z,101642.88
2022-09-12T09:51:07.114Z,101636.00
2022-09-12T09:53:48.861Z,101636.31
2022-09-12T09:56:33.616Z,101632.34
2022-09-12T09:59:16.777Z,101635.88
2022-09-12T10:01:50.071Z,101629.38
2022-09-12T10:04:19.948Z,101629.13
2022-09-12T10:06:47.020Z,101627.19
2022-09-12T10:09:21.695Z,101620.53
2022-09-12T10:11:49.819Z,101623.09
2022-09-12T10:14:37.965Z,101616.91
2022-09-12T10:17:25.430Z,101616.28
2022-09-12T10:20:04.836Z,101605.16
2022-09-12T10:22:39.967Z,101609.78
2022-09-12T10:25:12.314Z,101610.19
2022-09-12T10:27:38.758Z,101604.91
2022-09-12T10:30:14.469Z,101599.78
2022-09-12T10:32:46.327Z,101597.44
2022-09-12T10:35:30.528Z,101600.00
2022-09-12T10:38:06.388Z,101588.84
2022-09-12T10:40:44.088Z,101586.91
2022-09-12T10:43:38.022Z,101592.50
2022-09-12T10:46:16.553Z,101579.38
2022-09-12T10:48:44.154Z,101583.16
2022-09-12T10:51:25.750Z,101582.75
2022-09-12T10:53:54.786Z,101579.09
2022-09-12T10:56:28.876Z,101577.41
2022-09-12T10:59:02.673Z,101566.53
2022-09-12T11:01:44.935Z,101566.66
2022-09-12T11:04:14.037Z,101563.50
2022-09-12T11:06:49.118Z,101561.78
2022-09-12T11:09:40.340Z,101558.00
2022-09-12T11:12:40.869Z,101565.22
2022-09-12T11:15:13.289Z,101565.34
2022-09-12T11:17:59.947Z,101563.13
2022-09-12T11:20:57.179Z,101557.41
2022-09-12T11:23:29.737Z,101560.19
2022-09-12T11:26:19.001Z,101560.53
2022-09-12T11:28:57.521Z,101551.03
2022-09-12T11:31:52.275Z,101553.19
2022-09-12T11:34:34.469Z,101561.28
2022-09-12T11:37:20.739Z,101559.13
2022-09-12T11:39:55.195Z,101556.03
2022-09-12T11:42:39.244Z,101555.75
2022-09-12T11:45:29.965Z,101546.66
2022-09-12T11:48:03.877Z,101543.94
2022-09-12T11:50:31.772Z,101548.91
2022-09-12T11:53:06.144Z,101540.91
2022-09-12T11:55:47.887Z,101539.03
2022-09-12T11:58:16.035Z,101537.91
2022-09-12T12:00:53.404Z,101542.31
2022-09-12T12:03:44.967Z,101543.13
2022-09-12T12:06:39.291Z,101536.38
2022-09-12T12:09:05.909Z,101528.88
2022-09-12T12:11:43.626Z,101528.56
2022-09-12T12:14:20.777Z,101529.78
2022-09-12T12:16:47.833Z,101514.75
2022-09-12T12:19:14.197Z,101517.63
2022-09-12T12:21:43.901Z,101519.41
2022-09-12T12:24:10.380Z,101517.41
2022-09-12T12:26:39.930Z,101527.91
2022-09-12T12:29:18.377Z,101516.19
2022-09-12T12:31:59.856Z,101517.50
2022-09-12T12:34:43.524Z,101516.31
2022-09-12T12:37:19.110Z,101510.59
2022-09-12T12:39:48.504Z,101504.25
2022-09-12T12:42:35.977Z,101513.59
2022-09-12T12:45:23.502Z,101499.84
2022-09-12T12:47:54.533Z,101498.34
2022-09-12T12:50:27.377Z,101498.00
2022-09-12T12:52:59.526Z,101495.16
2022-09-12T12:55:50.272Z,101484.00
2022-09-12T12:58:36.246Z,101485.34
2022-09-12T13:01:17.032Z,101482.06
2022-09-12T13:03:53.337Z,101470.88
2022-09-12T13:06:37.592Z,101471.25
2022-09-12T13:09:08.748Z,101475.94
2022-09-12T13:11:38.490Z,101476.66
2022-09-12T13:14:09.369Z,101466.06
2022-09-12T13:19:17.571Z,101460.75
2022-09-12T13:22:02.409Z,101452.94
2022-09-12T13:24:28.885Z,101446.31
2022-09-12T13:26:55.390Z,101446.69
2022-09-12T13:29:24.851Z,101442.03
2022-09-12T13:31:55.365Z,101436.88
2022-09-12T13:34:31.326Z,101440.84
2022-09-12T13:37:19.776Z,101430.38
2022-09-12T13:39:46.537Z,101437.03
2022-09-12T13:42:42.626Z,101434.50
2022-09-12T13:45:24.277Z,101432.81
2022-09-12T13:47:58.712Z,101427.84
2022-09-12T13:50:33.018Z,101428.31
2022-09-12T13:53:04.487Z,101426.97
2022-09-12T13:55:39.151Z,101430.59
2022-09-12T13:58:15.236Z,101427.41
2022-09-12T14:00:41.882Z,101428.06
2022-09-12T14:03:48.014Z,101428.94
2022-09-12T14:06:18.973Z,101416.31
2022-09-12T14:08:47.951Z,101419.16
2022-09-12T14:11:31.010Z,101420.19
2022-09-12T14:13:58.248Z,101413.38
2022-09-12T14:16:28.371Z,101413.38
2022-09-12T14:18:55.118Z,101407.38
2022-09-12T14:21:36.368Z,101412.03
2022-09-12T14:24:06.903Z,101404.72
2022-09-12T14:26:35.501Z,101403.03
2022-09-12T14:29:05.692Z,101392.88
2022-09-12T14:31:35.135Z,101386.69
2022-09-12T14:34:14.968Z,101380.03
2022-09-12T14:36:45.508Z,101379.84
2022-09-12T14:39:17.701Z,101375.22
2022-09-12T14:41:44.414Z,101368.84
2022-09-12T14:44:19.303Z,101365.03
2022-09-12T14:46:47.289Z,101353.72
2022-09-12T14:49:18.348Z,101359.38
2022-09-12T14:51:51.484Z,101362.75
2022-09-12T14:54:30.335Z,101364.25
2022-09-12T14:57:02.388Z,101354.22
2022-09-12T14:59:33.326Z,101355.09
2022-09-12T15:02:21.856Z,101346.22
2022-09-12T15:05:16.233Z,101345.41
2022-09-12T15:08:04.455Z,101350.56
2022-09-12T15:10:36.597Z,101349.75
2022-09-12T15:13:05.794Z,101351.56
2022-09-12T15:15:32.891Z,101352.56
2022-09-12T15:18:02.305Z,101351.88
2022-09-12T15:20:32.002Z,101357.03
2022-09-12T15:22:58.905Z,101349.69
2022-09-12T15:25:25.322Z,101348.72
2022-09-12T15:27:53.477Z,101348.34
2022-09-12T15:30:19.952Z,101342.53
2022-09-12T15:32:46.409Z,101346.03
2022-09-12T15:35:22.829Z,101341.00
2022-09-12T15:37:49.888Z,101339.53
2022-09-12T15:40:17.248Z,101334.38
2022-09-12T15:42:44.006Z,101335.53
2022-09-12T15:45:24.030Z,101331.88
2022-09-12T15:47:50.597Z,101329.34
2022-09-12T15:50:17.017Z,101331.97
2022-09-12T15:52:44.348Z,101329.34
2022-09-12T15:55:19.574Z,101313.72
2022-09-12T15:57:46.463Z,101317.72
2022-09-12T16:00:14.370Z,101305.91
2022-09-12T16:02:41.027Z,101301.72
2022-09-12T16:05:14.274Z,101303.22
2022-09-12T16:07:40.756Z,101300.75
2022-09-12T16:10:07.700Z,101299.38
2022-09-12T16:12:34.189Z,101305.38
2022-09-12T16:15:00.713Z,101295.91
2022-09-12T16:17:27.131Z,101297.56
2022-09-12T16:19:53.592Z,101297.38
2022-09-12T16:22:20.046Z,101293.56
2022-09-12T16:24:46.473Z,101288.41
2022-09-12T16:27:13.001Z,101287.91
2022-09-12T16:29:39.451Z,101291.38
2022-09-12T16:32:13.313Z,101284.72
2022-09-12T16:34:39.708Z,101286.91
2022-09-12T16:37:06.301Z,101288.88
2022-09-12T16:39:34.454Z,101284.88
2022-09-12T16:42:00.878Z,101283.72
2022-09-12T16:44:27.421Z,101276.41
2022-09-12T16:46:53.897Z,101283.84
2022-09-12T16:49:21.699Z,101290.97
2022-09-12T16:51:48.113Z,101284.47
2022-09-12T16:54:15.724Z,101278.28
2022-09-12T16:56:42.195Z,101279.59
2022-09-12T16:59:12.078Z,101275.78
2022-09-12T17:01:38.719Z,101275.59
2022-09-12T17:04:05.483Z,101263.91
2022-09-12T17:06:33.351Z,101252.56
2022-09-12T17:09:01.610Z,101254.88
2022-09-12T17:11:34.688Z,101249.50
2022-09-12T17:14:06.467Z,101252.94
2022-09-12T17:16:52.157Z,101238.44
2022-09-12T17:19:22.107Z,101239.94
2022-09-12T17:21:49.984Z,101241.72
2022-09-12T17:24:19.967Z,101242.66
2022-09-12T17:26:46.558Z,101237.28
2022-09-12T17:29:16.596Z,101236.09
2022-09-12T17:31:44.073Z,101231.44
2022-09-12T17:34:14.373Z,101237.66
2022-09-12T17:36:44.217Z,101243.66
2022-09-12T17:39:11.673Z,101244.75
2022-09-12T17:41:38.476Z,101240.75
2022-09-12T17:44:07.332Z,101250.44
2022-09-12T17:46:38.661Z,101248.88
2022-09-12T17:49:08.785Z,101246.00
2022-09-12T17:51:35.469Z,101249.78
2022-09-12T17:54:16.962Z,101250.38
2022-09-12T17:56:45.911Z,101251.13
2022-09-12T17:59:21.735Z,101250.06
2022-09-12T18:02:07.527Z,101242.41
2022-09-12T18:04:34.394Z,101241.47
2022-09-12T18:07:00.900Z,101237.88
2022-09-12T18:09:28.348Z,101236.81
2022-09-12T18:11:55.247Z,101241.06
2022-09-12T18:14:22.391Z,101240.66
2022-09-12T18:16:49.656Z,101238.75
2022-09-12T18:19:16.496Z,101250.94
2022-09-12T18:21:42.922Z,101243.00
2022-09-12T18:24:10.645Z,101252.81
2022-09-12T18:26:37.883Z,101259.53
2022-09-12T18:29:04.641Z,101265.94
2022-09-12T18:31:31.423Z,101260.25
2022-09-12T18:34:00.266Z,101257.75
2022-09-12T18:36:27.623Z,101259.13
2022-09-12T18:38:54.268Z,101252.44
2022-09-12T18:41:23.393Z,101251.06
2022-09-12T18:43:57.637Z,101250.78
2022-09-12T18:46:25.100Z,101247.88
2022-09-12T18:48:52.268Z,101254.44
2022-09-12T18:51:20.998Z,101248.59
2022-09-12T18:53:56.315Z,101240.22
2022-09-12T18:56:25.529Z,101247.63
2022-09-12T18:58:54.506Z,101241.78
2022-09-12T19:01:22.039Z,101245.53
2022-09-12T19:03:49.466Z,101237.75
2022-09-12T19:06:22.580Z,101236.19
2022-09-12T19:08:50.209Z,101222.97
2022-09-12T19:11:17.854Z,101223.25
2022-09-12T19:13:46.229Z,101219.22
2022-09-12T19:16:16.895Z,101218.66
2022-09-12T19:18:43.708Z,101216.56
2022-09-12T19:21:39.428Z,101218.53
2022-09-12T19:24:10.150Z,101212.69
2022-09-12T19:26:38.110Z,101212.25
2022-09-12T19:29:05.333Z,101212.53
2022-09-12T19:31:32.119Z,101205.81
2022-09-12T19:34:03.515Z,101205.28
2022-09-12T19:36:47.039Z,101198.28
2022-09-12T19:39:16.239Z,101206.38
2022-09-12T19:41:43.680Z,101208.03
2022-09-12T19:44:10.415Z,101201.78
2022-09-12T19:50:43.130Z,101214.59
2022-09-12T19:53:09.571Z,101214.75
2022-09-12T19:56:38.738Z,101221.69
2022-09-12T20:03:16.220Z,101218.78
2022-09-12T20:06:05.473Z,101218.06
2022-09-12T20:08:47.359Z,101208.47
2022-09-12T20:11:31.614Z,101206.91
2022-09-12T20:14:34.912Z,101201.78
2022-09-12T20:17:01.441Z,101198.16
2022-09-12T20:19:28.217Z,101183.38
2022-09-12T20:21:54.630Z,101189.38
2022-09-12T20:24:21.086Z,101189.81
2022-09-12T20:26:47.660Z,101195.66
2022-09-12T20:29:14.379Z,101185.47
2022-09-12T20:31:42.324Z,101176.00
2022-09-12T20:34:15.418Z,101178.94
2022-09-12T20:36:42.362Z,101185.47
2022-09-12T20:39:14.062Z,101192.25
2022-09-12T20:41:40.506Z,101187.53
2022-09-12T20:44:06.920Z,101188.63
2022-09-12T20:46:33.694Z,101186.09
2022-09-12T20:49:00.113Z,101194.47
2022-09-12T20:51:27.261Z,101191.38
2022-09-12T20:53:54.681Z,101198.06
2022-09-12T20:56:21.980Z,101205.00
2022-09-12T20:58:48.406Z,101203.06
2022-09-12T21:01:15.900Z,101200.44
2022-09-12T21:03:43.688Z,101197.78
2022-09-12T21:06:12.542Z,101197.78
2022-09-12T21:08:39.358Z,101201.63
2022-09-12T21:11:07.042Z,101200.81
2022-09-12T21:13:33.942Z,101192.88
2022-09-12T21:16:03.455Z,101180.38
2022-09-12T21:18:31.535Z,101177.03
2022-09-12T21:20:58.071Z,101177.44
2022-09-12T21:23:25.533Z,101173.94
2022-09-12T21:25:52.842Z,101180.91
2022-09-12T21:28:20.412Z,101171.41
2022-09-12T21:30:50.781Z,101176.69
2022-09-12T21:33:19.167Z,101185.75
2022-09-12T21:35:47.213Z,101188.78
2022-09-12T21:38:17.588Z,101193.63
2022-09-12T21:40:44.151Z,101196.13
2022-09-12T21:43:13.037Z,101193.38
2022-09-12T21:45:40.414Z,101186.66
2022-09-12T21:48:07.038Z,101190.16
2022-09-12T21:50:33.503Z,101195.44
2022-09-12T21:52:59.933Z,101186.53
2022-09-12T21:55:27.263Z,101191.81
2022-09-12T21:57:54.792Z,101185.72
2022-09-12T22:00:21.414Z,101186.53
2022-09-12T22:02:48.792Z,101201.56
2022-09-12T22:05:15.652Z,101194.59
2022-09-12T22:07:42.230Z,101196.28
2022-09-12T22:10:09.186Z,101195.44
2022-09-12T22:12:35.683Z,101192.09
2022-09-12T22:15:17.531Z,101190.28
2022-09-12T22:17:48.635Z,101194.03
2022-09-12T22:20:15.106Z,101193.19
2022-09-12T22:23:00.103Z,101185.97
2022-09-12T22:25:26.643Z,101192.22
2022-09-12T22:27:54.479Z,101188.88
2022-09-12T22:30:22.544Z,101196.09
2022-09-12T22:32:51.138Z,101189.84
2022-09-12T22:35:18.403Z,101184.56
2022-09-12T22:37:46.511Z,101176.50
2022-09-12T22:40:13.149Z,101175.53
2022-09-12T22:42:39.710Z,101170.25
2022-09-12T22:45:07.658Z,101157.03
2022-09-12T22:47:34.159Z,101165.22
2022-09-12T22:50:00.694Z,101162.84
2022-09-12T22:52:27.216Z,101162.16
2022-09-12T22:54:53.702Z,101162.28
2022-09-12T22:57:20.183Z,101156.16
2022-09-12T22:59:46.663Z,101148.13
2022-09-12T23:02:13.381Z,101145.59
2022-09-12T23:04:40.044Z,101144.75
2022-09-12T23:07:06.639Z,101142.94
2022-09-12T23:09:35.446Z,101133.50
2022-09-12T23:12:02.730Z,101130.84
2022-09-12T23:14:29.320Z,101125.69
2022-09-12T23:16:55.773Z,101136.41
2022-09-12T23:19:22.292Z,101136.66
2022-09-12T23:21:48.767Z,101131.66
2022-09-12T23:24:15.410Z,101134.41
2022-09-12T23:26:41.854Z,101131.91
2022-09-12T23:29:08.837Z,101136.63
2022-09-12T23:31:35.336Z,101133.28
2022-09-12T23:34:05.803Z,101129.66
2022-09-12T23:36:32.460Z,101122.59
2022-09-12T23:38:58.898Z,101123.53
2022-09-12T23:41:25.492Z,101120.91
2022-09-12T23:43:51.922Z,101122.84
2022-09-12T23:46:19.961Z,101120.47
2022-09-12T23:48:46.606Z,101114.47
2022-09-12T23:51:13.598Z,101117.38
2022-09-12T23:53:40.510Z,101113.34
2022-09-12T23:56:07.609Z,101111.66
2022-09-12T23:58:34.066Z,101104.69
